createdAt,value
2018-03-26T00:01:12.663Z,37.37
2018-03-26T00:03:39.047Z,36.70
2018-03-26T00:06:06.209Z,38.93
2018-03-26T00:08:32.757Z,37.67
2018-03-26T00:10:59.168Z,39.20
2018-03-26T00:13:26.337Z,37.10
2018-03-26T00:15:52.740Z,37.50
2018-03-26T00:18:19.871Z,35.97
2018-03-26T00:20:46.293Z,35.33
2018-03-26T00:23:12.671Z,38.03
2018-03-26T00:25:39.052Z,38.90
2018-03-26T00:28:05.716Z,38.88
2018-03-26T00:30:32.093Z,35.70
2018-03-26T00:32:58.532Z,36.77
2018-03-26T00:35:24.914Z,36.90
2018-03-26T00:37:52.071Z,37.97
2018-03-26T00:40:19.224Z,35.60
2018-03-26T00:42:46.371Z,33.83
2018-03-26T00:45:13.515Z,36.35
2018-03-26T00:47:40.647Z,39.67
2018-03-26T00:50:07.053Z,39.10
2018-03-26T00:52:33.528Z,39.25
2018-03-26T00:55:00.660Z,38.03
2018-03-26T00:57:27.079Z,36.70
2018-03-26T00:59:53.489Z,37.80
2018-03-26T01:02:19.905Z,35.45
2018-03-26T01:04:46.312Z,38.15
2018-03-26T01:07:13.441Z,36.40
2018-03-26T01:09:39.835Z,36.75
2018-03-26T01:12:06.229Z,36.15
2018-03-26T01:14:33.366Z,37.45
2018-03-26T01:16:59.751Z,41.50
2018-03-26T01:19:26.268Z,36.93
2018-03-26T01:21:52.678Z,38.72
2018-03-26T01:24:19.807Z,35.70
2018-03-26T01:26:46.186Z,37.83
2018-03-26T01:29:12.594Z,39.65
2018-03-26T01:31:39.715Z,36.63
2018-03-26T01:34:06.115Z,36.42
2018-03-26T01:36:32.499Z,35.45
2018-03-26T01:38:59.633Z,35.00
2018-03-26T01:41:26.013Z,33.08
2018-03-26T01:43:52.388Z,36.20
2018-03-26T01:46:18.786Z,35.00
2018-03-26T01:48:45.172Z,38.75
2018-03-26T01:51:12.318Z,37.03
2018-03-26T01:53:39.452Z,39.15
2018-03-26T01:56:05.846Z,41.10
2018-03-26T01:58:32.361Z,43.65
2018-03-26T02:00:58.768Z,40.38
2018-03-26T02:03:25.900Z,38.05
2018-03-26T02:05:52.327Z,39.15
2018-03-26T02:08:18.734Z,40.83
2018-03-26T02:10:45.114Z,37.75
2018-03-26T02:13:12.283Z,40.12
2018-03-26T02:15:38.694Z,39.30
2018-03-26T02:18:05.880Z,39.03
2018-03-26T02:20:32.275Z,36.47
2018-03-26T02:22:58.679Z,33.97
2018-03-26T02:25:25.059Z,35.42
2018-03-26T02:27:51.772Z,33.72
2018-03-26T02:30:18.165Z,34.95
2018-03-26T02:32:44.545Z,35.67
2018-03-26T02:35:11.679Z,35.25
2018-03-26T02:37:38.080Z,32.53
2018-03-26T02:40:04.514Z,31.87
2018-03-26T02:42:30.905Z,36.10
2018-03-26T02:44:57.297Z,37.50
2018-03-26T02:47:23.686Z,34.70
2018-03-26T02:49:50.082Z,37.47
2018-03-26T02:52:16.477Z,34.05
2018-03-26T02:54:42.852Z,34.20
2018-03-26T02:57:09.982Z,37.83
2018-03-26T02:59:36.450Z,40.15
2018-03-26T03:02:03.618Z,37.05
2018-03-26T03:04:30.016Z,36.70
2018-03-26T03:06:57.157Z,35.50
2018-03-26T03:09:23.588Z,35.17
2018-03-26T03:11:49.989Z,34.80
2018-03-26T03:14:16.366Z,35.47
2018-03-26T03:16:43.481Z,35.92
2018-03-26T03:19:09.872Z,38.00
2018-03-26T03:21:36.281Z,37.58
2018-03-26T03:24:03.452Z,36.05
2018-03-26T03:26:29.851Z,36.45
2018-03-26T03:28:56.226Z,33.63
2018-03-26T03:31:22.623Z,37.58
2018-03-26T03:33:49.749Z,38.20
2018-03-26T03:36:16.128Z,36.97
2018-03-26T03:38:42.508Z,37.97
2018-03-26T03:41:08.921Z,34.00
2018-03-26T03:43:35.304Z,37.88
2018-03-26T03:46:02.476Z,35.65
2018-03-26T03:48:28.868Z,34.75
2018-03-26T03:50:55.311Z,36.15
2018-03-26T03:53:21.874Z,37.05
2018-03-26T03:55:48.244Z,38.17
2018-03-26T03:58:14.620Z,41.20
2018-03-26T04:00:41.754Z,40.22
2018-03-26T04:03:08.864Z,39.00
2018-03-26T04:05:35.238Z,38.80
2018-03-26T04:08:01.648Z,36.20
2018-03-26T04:10:28.038Z,39.63
2018-03-26T04:12:54.407Z,38.42
2018-03-26T04:15:20.806Z,40.12
2018-03-26T04:17:47.197Z,37.60
2018-03-26T04:20:17.657Z,37.80
2018-03-26T04:22:44.050Z,39.00
2018-03-26T04:25:11.961Z,38.83
2018-03-26T04:27:38.359Z,41.35
2018-03-26T04:30:05.545Z,35.83
2018-03-26T04:32:31.920Z,37.53
2018-03-26T04:34:58.303Z,36.42
2018-03-26T04:37:24.696Z,37.25
2018-03-26T04:39:51.074Z,39.65
2018-03-26T04:42:17.446Z,39.38
2018-03-26T04:44:43.877Z,38.13
2018-03-26T04:47:10.260Z,37.97
2018-03-26T04:49:36.659Z,38.92
2018-03-26T04:52:03.100Z,39.90
2018-03-26T04:54:30.240Z,39.45
2018-03-26T04:56:57.366Z,39.72
2018-03-26T04:59:23.745Z,40.72
2018-03-26T05:01:50.112Z,41.40
2018-03-26T05:04:16.545Z,43.28
2018-03-26T05:06:42.936Z,42.72
2018-03-26T05:09:09.496Z,38.72
2018-03-26T05:11:35.923Z,39.42
2018-03-26T05:14:02.320Z,35.55
2018-03-26T05:16:29.453Z,41.67
2018-03-26T05:18:55.833Z,40.53
2018-03-26T05:21:22.238Z,40.50
2018-03-26T05:23:49.367Z,39.90
2018-03-26T05:26:15.766Z,41.03
2018-03-26T05:28:42.161Z,41.53
2018-03-26T05:31:08.898Z,39.95
2018-03-26T05:33:35.321Z,40.28
2018-03-26T05:36:02.477Z,40.78
2018-03-26T05:38:28.867Z,42.62
2018-03-26T05:40:55.317Z,40.88
2018-03-26T05:43:21.700Z,42.58
2018-03-26T05:45:48.100Z,43.97
2018-03-26T05:48:15.223Z,45.55
2018-03-26T05:50:41.655Z,44.50
2018-03-26T05:53:08.062Z,43.90
2018-03-26T05:55:34.525Z,42.22
2018-03-26T05:58:00.918Z,45.70
2018-03-26T06:00:27.299Z,43.42
2018-03-26T06:02:53.704Z,44.70
2018-03-26T06:05:20.104Z,43.70
2018-03-26T06:07:46.495Z,45.83
2018-03-26T06:10:13.715Z,42.43
2018-03-26T06:12:40.110Z,43.77
2018-03-26T06:15:06.487Z,43.43
2018-03-26T06:17:32.915Z,39.80
2018-03-26T06:19:59.360Z,43.50
2018-03-26T06:22:25.803Z,41.90
2018-03-26T06:24:52.284Z,41.63
2018-03-26T06:27:18.716Z,40.40
2018-03-26T06:29:45.168Z,40.43
2018-03-26T06:32:11.653Z,41.47
2018-03-26T06:34:38.789Z,42.00
2018-03-26T06:37:20.085Z,43.87
2018-03-26T06:39:47.215Z,46.93
2018-03-26T06:42:13.592Z,47.73
2018-03-26T06:44:39.989Z,67.97
2018-03-26T06:47:07.153Z,75.33
2018-03-26T06:49:34.283Z,48.63
2018-03-26T06:52:00.760Z,44.60
2018-03-26T06:54:27.158Z,42.23
2018-03-26T06:56:54.421Z,43.10
2018-03-26T06:59:21.569Z,40.93
2018-03-26T07:01:48.728Z,40.03
2018-03-26T07:04:15.177Z,43.73
2018-03-26T07:06:41.573Z,38.90
2018-03-26T07:09:08.721Z,44.93
2018-03-26T07:11:35.854Z,35.93
2018-03-26T07:14:02.296Z,37.60
2018-03-26T07:16:28.731Z,36.20
2018-03-26T07:18:55.895Z,37.27
2018-03-26T07:21:23.036Z,38.60
2018-03-26T07:23:50.176Z,37.60
2018-03-26T07:26:18.098Z,40.10
2018-03-26T07:28:44.502Z,37.40
2018-03-26T07:31:11.640Z,37.90
2018-03-26T07:33:38.767Z,37.90
2018-03-26T07:36:05.168Z,37.97
2018-03-26T07:38:31.578Z,38.33
2018-03-26T07:40:57.959Z,39.90
2018-03-26T07:43:24.368Z,38.03
2018-03-26T07:45:50.763Z,35.93
2018-03-26T07:48:17.163Z,38.50
2018-03-26T07:50:43.561Z,43.37
2018-03-26T07:53:09.976Z,39.77
2018-03-26T07:55:36.363Z,39.10
2018-03-26T07:58:02.787Z,37.70
2018-03-26T08:00:29.256Z,37.30
2018-03-26T08:02:56.390Z,38.47
2018-03-26T08:05:23.522Z,36.57
2018-03-26T08:07:49.920Z,38.90
2018-03-26T08:10:16.329Z,40.43
2018-03-26T08:12:42.712Z,36.80
2018-03-26T08:15:09.140Z,39.77
2018-03-26T08:17:35.561Z,38.60
2018-03-26T08:20:01.955Z,38.27
2018-03-26T08:22:29.078Z,44.00
2018-03-26T08:24:56.272Z,36.83
2018-03-26T08:27:22.663Z,36.80
2018-03-26T08:29:49.809Z,39.77
2018-03-26T08:32:16.928Z,42.53
2018-03-26T08:34:43.307Z,38.20
2018-03-26T08:37:10.447Z,40.47
2018-03-26T08:39:37.596Z,38.17
2018-03-26T08:42:04.743Z,38.77
2018-03-26T08:44:31.868Z,36.17
2018-03-26T08:46:58.289Z,40.47
2018-03-26T08:49:24.707Z,37.00
2018-03-26T08:51:51.096Z,36.10
2018-03-26T08:54:18.234Z,37.27
2018-03-26T08:56:45.353Z,36.13
2018-03-26T08:59:11.734Z,34.50
2018-03-26T09:01:38.855Z,35.97
2018-03-26T09:04:05.274Z,35.90
2018-03-26T09:06:31.806Z,35.30
2018-03-26T09:08:58.228Z,38.60
2018-03-26T09:11:24.610Z,37.17
2018-03-26T09:13:51.732Z,36.83
2018-03-26T09:16:18.126Z,35.40
2018-03-26T09:18:44.518Z,38.67
2018-03-26T09:21:11.735Z,38.90
2018-03-26T09:23:38.148Z,34.47
2018-03-26T09:26:04.607Z,33.47
2018-03-26T09:28:31.023Z,36.47
2018-03-26T09:30:57.475Z,35.90
2018-03-26T09:33:23.865Z,36.53
2018-03-26T09:35:50.467Z,36.40
2018-03-26T09:38:17.659Z,35.43
2018-03-26T09:40:44.102Z,33.83
2018-03-26T09:43:10.486Z,35.40
2018-03-26T09:45:37.624Z,34.63
2018-03-26T09:48:05.495Z,33.87
2018-03-26T09:50:33.384Z,35.70
2018-03-26T09:53:00.532Z,33.97
2018-03-26T09:55:27.668Z,34.93
2018-03-26T09:57:54.077Z,35.07
2018-03-26T10:00:21.484Z,33.20
2018-03-26T10:02:47.854Z,32.13
2018-03-26T10:05:14.321Z,32.07
2018-03-26T10:07:41.465Z,33.83
2018-03-26T10:10:07.854Z,33.70
2018-03-26T10:12:34.243Z,31.17
2018-03-26T10:15:01.344Z,31.87
2018-03-26T10:17:27.743Z,30.67
2018-03-26T10:19:54.148Z,32.90
2018-03-26T10:22:20.610Z,32.80
2018-03-26T10:24:47.867Z,30.53
2018-03-26T10:27:14.252Z,29.27
2018-03-26T10:29:41.393Z,31.57
2018-03-26T10:32:07.782Z,29.97
2018-03-26T10:34:34.182Z,31.37
2018-03-26T10:37:01.303Z,30.77
2018-03-26T10:39:27.686Z,29.47
2018-03-26T10:41:54.804Z,33.73
2018-03-26T10:44:21.197Z,30.50
2018-03-26T10:46:47.643Z,30.50
2018-03-26T10:49:14.044Z,30.07
2018-03-26T10:51:40.420Z,30.30
2018-03-26T10:54:08.290Z,31.73
2018-03-26T10:56:34.701Z,29.13
2018-03-26T10:59:01.105Z,27.60
2018-03-26T11:01:27.489Z,28.90
2018-03-26T11:03:55.372Z,28.20
2018-03-26T11:06:22.581Z,29.10
2018-03-26T11:08:48.980Z,28.57
2018-03-26T11:11:15.389Z,30.03
2018-03-26T11:13:42.509Z,28.17
2018-03-26T11:16:08.912Z,30.00
2018-03-26T11:18:35.326Z,28.77
2018-03-26T11:21:01.749Z,26.57
2018-03-26T11:23:28.884Z,28.70
2018-03-26T11:25:56.021Z,28.30
2018-03-26T11:28:23.042Z,29.13
2018-03-26T11:30:49.580Z,28.83
2018-03-26T11:33:16.060Z,30.20
2018-03-26T11:35:43.210Z,33.13
2018-03-26T11:38:10.343Z,28.83
2018-03-26T11:40:36.719Z,28.73
2018-03-26T11:43:03.108Z,31.07
2018-03-26T11:45:30.231Z,29.53
2018-03-26T11:47:57.359Z,31.13
2018-03-26T11:50:23.791Z,27.60
2018-03-26T11:52:50.208Z,28.10
2018-03-26T11:55:16.641Z,28.47
2018-03-26T11:57:43.751Z,28.90
2018-03-26T12:00:10.931Z,31.87
2018-03-26T12:02:37.348Z,28.90
2018-03-26T12:05:03.773Z,30.40
2018-03-26T12:07:30.166Z,28.90
2018-03-26T12:09:56.552Z,29.30
2018-03-26T12:12:23.816Z,28.30
2018-03-26T12:14:50.218Z,28.30
2018-03-26T12:17:16.642Z,27.27
2018-03-26T12:19:53.188Z,25.87
2018-03-26T12:22:19.556Z,28.10
2018-03-26T12:25:10.637Z,26.80
2018-03-26T12:27:49.218Z,29.90
2018-03-26T12:30:16.695Z,29.43
2018-03-26T12:32:43.165Z,29.60
2018-03-26T12:35:21.727Z,29.80
2018-03-26T12:37:48.118Z,28.77
2018-03-26T12:40:26.896Z,29.80
2018-03-26T12:42:53.316Z,29.07
2018-03-26T12:45:32.028Z,29.63
2018-03-26T12:47:58.419Z,29.67
2018-03-26T12:50:37.160Z,28.90
2018-03-26T12:53:04.331Z,27.83
2018-03-26T12:55:31.456Z,27.60
2018-03-26T12:58:10.931Z,27.60
2018-03-26T13:00:37.312Z,28.50
2018-03-26T13:03:05.252Z,29.97
2018-03-26T13:05:31.694Z,30.00
2018-03-26T13:07:58.140Z,29.00
2018-03-26T13:10:24.543Z,29.33
2018-03-26T13:12:50.948Z,28.33
2018-03-26T13:15:17.331Z,28.90
2018-03-26T13:17:43.727Z,27.50
2018-03-26T13:20:10.148Z,24.80
2018-03-26T13:22:36.552Z,26.03
2018-03-26T13:25:02.983Z,25.77
2018-03-26T13:27:29.376Z,28.07
2018-03-26T13:29:55.804Z,27.17
2018-03-26T13:32:22.211Z,27.17
2018-03-26T13:34:48.597Z,28.17
2018-03-26T13:37:15.012Z,27.53
2018-03-26T13:39:41.532Z,30.33
2018-03-26T13:42:07.920Z,28.90
2018-03-26T13:44:34.319Z,29.07
2018-03-26T13:47:00.783Z,27.70
2018-03-26T13:49:27.161Z,38.03
2018-03-26T13:51:53.547Z,27.47
2018-03-26T13:54:20.059Z,29.00
2018-03-26T13:56:46.465Z,27.07
2018-03-26T13:59:12.859Z,27.47
2018-03-26T14:01:39.992Z,27.37
2018-03-26T14:04:06.379Z,26.33
2018-03-26T14:06:32.777Z,26.53
2018-03-26T14:09:12.128Z,25.87
2018-03-26T14:11:50.878Z,28.33
2018-03-26T14:14:29.609Z,27.37
2018-03-26T14:17:08.296Z,25.73
2018-03-26T14:19:34.696Z,26.23
2018-03-26T14:22:01.843Z,27.03
2018-03-26T14:24:28.976Z,26.27
2018-03-26T14:26:56.869Z,26.90
2018-03-26T14:29:24.001Z,25.83
2018-03-26T14:31:51.134Z,27.53
2018-03-26T14:34:17.542Z,28.80
2018-03-26T14:36:43.956Z,26.30
2018-03-26T14:39:10.339Z,25.13
2018-03-26T14:41:37.209Z,27.80
2018-03-26T14:44:03.614Z,28.93
2018-03-26T14:46:30.011Z,27.33
2018-03-26T14:48:56.414Z,27.00
2018-03-26T14:51:22.793Z,27.67
2018-03-26T14:53:49.199Z,26.87
2018-03-26T14:56:15.583Z,26.83
2018-03-26T14:58:42.718Z,29.07
2018-03-26T15:01:10.097Z,29.20
2018-03-26T15:03:37.273Z,29.23
2018-03-26T15:06:03.693Z,28.57
2018-03-26T15:08:30.844Z,29.50
2018-03-26T15:10:57.951Z,29.43
2018-03-26T15:13:24.342Z,29.80
2018-03-26T15:15:50.737Z,29.37
2018-03-26T15:18:17.896Z,29.70
2018-03-26T15:20:45.028Z,28.03
2018-03-26T15:23:11.407Z,30.23
2018-03-26T15:25:37.786Z,29.63
2018-03-26T15:28:04.196Z,29.80
2018-03-26T15:30:30.576Z,35.00
2018-03-26T15:32:57.695Z,32.53
2018-03-26T15:35:24.077Z,30.80
2018-03-26T15:37:50.472Z,31.57
2018-03-26T15:40:17.603Z,30.60
2018-03-26T15:42:44.198Z,30.30
2018-03-26T15:45:10.605Z,28.93
2018-03-26T15:47:37.773Z,30.77
2018-03-26T15:50:04.217Z,30.20
2018-03-26T15:52:30.591Z,31.23
2018-03-26T15:54:58.453Z,32.33
2018-03-26T15:57:25.728Z,32.47
2018-03-26T15:59:52.907Z,32.63
2018-03-26T16:02:19.384Z,32.27
2018-03-26T16:04:45.777Z,33.97
2018-03-26T16:07:12.168Z,34.80
2018-03-26T16:09:38.561Z,32.20
2018-03-26T16:12:05.021Z,31.60
2018-03-26T16:14:32.903Z,33.73
2018-03-26T16:16:59.296Z,33.53
2018-03-26T16:19:25.706Z,32.13
2018-03-26T16:21:52.083Z,32.50
2018-03-26T16:24:18.485Z,32.80
2018-03-26T16:26:44.875Z,36.70
2018-03-26T16:29:12.000Z,32.50
2018-03-26T16:31:38.425Z,35.80
2018-03-26T16:34:04.795Z,35.77
2018-03-26T16:36:31.932Z,32.63
2018-03-26T16:38:59.061Z,46.00
2018-03-26T16:41:37.632Z,35.40
2018-03-26T16:44:04.078Z,44.90
2018-03-26T16:46:30.492Z,43.00
2018-03-26T16:48:56.896Z,34.50
2018-03-26T16:51:23.282Z,33.50
2018-03-26T16:53:49.671Z,33.87
2018-03-26T16:56:16.814Z,33.80
2018-03-26T16:58:43.959Z,33.63
2018-03-26T17:01:10.383Z,36.67
2018-03-26T17:03:37.580Z,37.53
2018-03-26T17:06:04.008Z,33.80
2018-03-26T17:08:30.407Z,34.13
2018-03-26T17:10:56.857Z,34.60
2018-03-26T17:13:23.988Z,34.13
2018-03-26T17:15:50.389Z,34.60
2018-03-26T17:18:16.776Z,36.43
2018-03-26T17:20:43.999Z,34.73
2018-03-26T17:23:10.400Z,35.33
2018-03-26T17:25:36.802Z,37.33
2018-03-26T17:28:03.319Z,34.60
2018-03-26T17:30:29.747Z,34.97
2018-03-26T17:32:57.194Z,38.37
2018-03-26T17:35:24.346Z,40.10
2018-03-26T17:37:50.736Z,39.23
2018-03-26T17:40:17.188Z,42.63
2018-03-26T17:42:43.547Z,38.30
2018-03-26T17:45:09.930Z,38.43
2018-03-26T17:47:36.385Z,41.87
2018-03-26T17:50:02.826Z,38.40
2018-03-26T17:52:29.993Z,37.80
2018-03-26T17:54:57.208Z,42.20
2018-03-26T17:57:23.624Z,42.50
2018-03-26T17:59:50.036Z,43.30
2018-03-26T18:02:16.431Z,40.97
2018-03-26T18:04:44.318Z,42.43
2018-03-26T18:07:11.452Z,41.00
2018-03-26T18:09:38.664Z,42.50
2018-03-26T18:12:05.076Z,42.47
2018-03-26T18:14:31.483Z,42.33
2018-03-26T18:16:58.652Z,43.30
2018-03-26T18:19:25.065Z,46.70
2018-03-26T18:21:52.223Z,44.00
2018-03-26T18:24:19.405Z,40.30
2018-03-26T18:26:45.848Z,45.53
2018-03-26T18:29:12.262Z,44.70
2018-03-26T18:31:38.648Z,45.77
2018-03-26T18:34:05.801Z,44.10
2018-03-26T18:36:32.989Z,43.77
2018-03-26T18:38:59.436Z,43.40
2018-03-26T18:41:25.846Z,46.27
2018-03-26T18:43:52.290Z,47.00
2018-03-26T18:46:18.711Z,46.93
2018-03-26T18:48:45.941Z,44.40
2018-03-26T18:51:13.128Z,46.87
2018-03-26T18:53:39.558Z,45.83
2018-03-26T18:56:05.958Z,46.40
2018-03-26T18:58:33.142Z,48.30
2018-03-26T19:00:59.597Z,46.27
2018-03-26T19:03:26.264Z,50.83
2018-03-26T19:05:53.438Z,45.57
2018-03-26T19:08:20.613Z,50.20
2018-03-26T19:10:47.050Z,47.00
2018-03-26T19:13:13.448Z,49.30
2018-03-26T19:15:40.612Z,51.43
2018-03-26T19:18:07.057Z,51.17
2018-03-26T19:20:33.458Z,54.30
2018-03-26T19:23:00.596Z,55.53
2018-03-26T19:25:27.752Z,57.50
2018-03-26T19:27:54.130Z,56.23
2018-03-26T19:30:20.548Z,52.40
2018-03-26T19:32:47.673Z,49.73
2018-03-26T19:35:14.061Z,50.57
2018-03-26T19:37:41.426Z,51.33
2018-03-26T19:40:07.838Z,53.63
2018-03-26T19:42:34.254Z,51.97
2018-03-26T19:45:00.685Z,54.20
2018-03-26T19:47:27.091Z,54.50
2018-03-26T19:49:54.235Z,55.70
2018-03-26T19:52:21.365Z,51.47
2018-03-26T19:54:47.716Z,56.47
2018-03-26T19:57:14.816Z,54.70
2018-03-26T19:59:41.178Z,55.37
2018-03-26T20:02:08.281Z,58.03
2018-03-26T20:04:34.691Z,58.43
2018-03-26T20:07:01.889Z,53.70
2018-03-26T20:09:28.393Z,52.80
2018-03-26T20:11:54.826Z,52.53
2018-03-26T20:14:21.299Z,50.73
2018-03-26T20:16:47.943Z,54.73
2018-03-26T20:19:14.362Z,55.83
2018-03-26T20:21:40.766Z,52.37
2018-03-26T20:24:07.197Z,53.60
2018-03-26T20:26:33.588Z,53.97
2018-03-26T20:29:00.723Z,51.03
2018-03-26T20:31:28.620Z,55.40
2018-03-26T20:33:55.795Z,49.40
2018-03-26T20:36:22.190Z,54.23
2018-03-26T20:38:49.315Z,54.97
2018-03-26T20:41:15.743Z,54.10
2018-03-26T20:43:42.136Z,52.63
2018-03-26T20:46:08.543Z,53.90
2018-03-26T20:48:35.730Z,51.43
2018-03-26T20:51:02.874Z,50.87
2018-03-26T20:53:29.307Z,51.40
2018-03-26T20:55:55.703Z,54.00
2018-03-26T20:58:22.811Z,51.60
2018-03-26T21:00:49.228Z,52.43
2018-03-26T21:03:15.615Z,53.30
2018-03-26T21:05:42.013Z,54.37
2018-03-26T21:08:08.411Z,53.13
2018-03-26T21:10:34.779Z,53.23
2018-03-26T21:13:01.206Z,52.57
2018-03-26T21:15:27.655Z,51.57
2018-03-26T21:17:54.058Z,51.60
2018-03-26T21:20:20.517Z,52.37
2018-03-26T21:22:46.913Z,55.83
2018-03-26T21:25:13.319Z,51.90
2018-03-26T21:27:40.489Z,51.30
2018-03-26T21:30:07.092Z,52.80
2018-03-26T21:32:34.245Z,52.30
2018-03-26T21:35:00.662Z,50.17
2018-03-26T21:37:27.054Z,50.50
2018-03-26T21:39:53.433Z,52.57
2018-03-26T21:42:19.823Z,57.33
2018-03-26T21:44:46.203Z,55.47
2018-03-26T21:47:13.395Z,53.47
2018-03-26T21:49:39.793Z,56.27
2018-03-26T21:52:06.187Z,54.80
2018-03-26T21:54:32.572Z,54.63
2018-03-26T21:56:59.718Z,56.43
2018-03-26T21:59:26.891Z,58.47
2018-03-26T22:01:53.314Z,59.77
2018-03-26T22:04:19.720Z,55.90
2018-03-26T22:06:46.844Z,59.80
2018-03-26T22:09:13.264Z,55.87
2018-03-26T22:11:39.703Z,58.80
2018-03-26T22:14:06.138Z,58.40
2018-03-26T22:16:32.552Z,54.83
2018-03-26T22:18:58.946Z,55.03
2018-03-26T22:21:26.127Z,59.00
2018-03-26T22:23:52.541Z,58.60
2018-03-26T22:26:18.958Z,56.87
2018-03-26T22:28:46.077Z,58.73
2018-03-26T22:31:12.471Z,59.07
2018-03-26T22:33:38.857Z,57.00
2018-03-26T22:36:05.980Z,57.60
2018-03-26T22:38:32.345Z,58.60
2018-03-26T22:40:59.528Z,59.57
2018-03-26T22:43:25.903Z,55.40
2018-03-26T22:45:52.288Z,57.57
2018-03-26T22:48:18.679Z,58.90
2018-03-26T22:50:45.811Z,59.73
2018-03-26T22:53:12.198Z,56.63
2018-03-26T22:55:38.659Z,58.33
2018-03-26T22:58:06.568Z,58.67
2018-03-26T23:00:32.988Z,59.60
2018-03-26T23:02:59.372Z,59.63
2018-03-26T23:05:25.743Z,59.83
2018-03-26T23:07:52.126Z,62.00
2018-03-26T23:10:18.517Z,62.70
2018-03-26T23:12:44.899Z,59.13
2018-03-26T23:15:11.315Z,60.03
2018-03-26T23:17:37.703Z,55.77
2018-03-26T23:20:04.188Z,57.60
2018-03-26T23:22:43.035Z,56.10
2018-03-26T23:25:09.410Z,58.10
2018-03-26T23:27:35.796Z,58.83
2018-03-26T23:30:02.461Z,59.83
2018-03-26T23:32:28.875Z,56.67
2018-03-26T23:34:55.249Z,58.40
2018-03-26T23:37:22.373Z,59.10
2018-03-26T23:39:48.755Z,58.57
2018-03-26T23:42:15.139Z,60.00
2018-03-26T23:44:41.545Z,57.70
2018-03-26T23:47:07.922Z,60.40
2018-03-26T23:49:35.051Z,55.80
2018-03-26T23:52:02.180Z,58.67
2018-03-26T23:54:28.577Z,56.07
2018-03-26T23:56:54.958Z,59.63
2018-03-26T23:59:21.365Z,57.37
